createdAt,value
2019-06-01T00:01:46.931Z,14.10
2019-06-01T00:04:14.398Z,14.10
2019-06-01T00:06:42.811Z,14.10
2019-06-01T00:09:10.258Z,14.00
2019-06-01T00:11:37.674Z,14.00
2019-06-01T00:14:06.126Z,14.00
2019-06-01T00:16:33.838Z,14.00
2019-06-01T00:19:01.384Z,13.90
2019-06-01T00:21:28.918Z,13.90
2019-06-01T00:23:59.041Z,13.90
2019-06-01T00:26:33.496Z,13.90
2019-06-01T00:29:01.044Z,13.90
2019-06-01T00:31:29.426Z,13.90
2019-06-01T00:33:58.928Z,13.90
2019-06-01T00:36:33.069Z,13.90
2019-06-01T00:39:00.421Z,13.80
2019-06-01T00:41:27.976Z,13.80
2019-06-01T00:43:55.337Z,13.80
2019-06-01T00:46:22.761Z,13.80
2019-06-01T00:48:52.254Z,13.80
2019-06-01T00:51:19.751Z,13.70
2019-06-01T00:53:49.411Z,13.80
2019-06-01T00:56:17.091Z,13.70
2019-06-01T00:58:45.728Z,13.70
2019-06-01T01:01:13.674Z,13.70
2019-06-01T01:03:41.122Z,13.70
2019-06-01T01:06:08.656Z,13.70
2019-06-01T01:08:36.326Z,13.70
2019-06-01T01:11:03.953Z,13.60
2019-06-01T01:13:31.456Z,13.60
2019-06-01T01:16:00.137Z,13.60
2019-06-01T01:18:27.752Z,13.80
2019-06-01T01:20:56.164Z,13.60
2019-06-01T01:23:30.616Z,13.60
2019-06-01T01:25:57.905Z,13.50
2019-06-01T01:28:27.535Z,13.50
2019-06-01T01:31:06.495Z,13.50
2019-06-01T01:33:24.937Z,13.50
2019-06-01T01:35:52.902Z,13.50
2019-06-01T01:38:22.590Z,13.50
2019-06-01T01:40:50.134Z,13.50
2019-06-01T01:43:23.435Z,13.40
2019-06-01T01:45:51.004Z,13.50
2019-06-01T01:48:18.483Z,13.40
2019-06-01T01:50:45.984Z,13.40
2019-06-01T01:53:14.036Z,13.40
2019-06-01T01:55:41.514Z,13.30
2019-06-01T01:58:08.862Z,13.40
2019-06-01T02:00:42.168Z,13.40
2019-06-01T02:03:19.677Z,13.30
2019-06-01T02:05:48.238Z,13.30
2019-06-01T02:08:15.745Z,13.30
2019-06-01T02:10:44.204Z,13.30
2019-06-01T02:13:13.610Z,13.30
2019-06-01T02:15:43.574Z,13.30
2019-06-01T02:18:11.257Z,13.30
2019-06-01T02:20:39.674Z,13.30
2019-06-01T02:23:07.846Z,13.30
2019-06-01T02:25:35.854Z,13.30
2019-06-01T02:28:03.446Z,13.30
2019-06-01T02:30:30.994Z,13.20
2019-06-01T02:33:00.260Z,13.20
2019-06-01T02:35:27.978Z,13.20
2019-06-01T02:38:00.665Z,13.20
2019-06-01T02:40:28.643Z,13.20
2019-06-01T02:42:57.128Z,13.20
2019-06-01T02:45:25.281Z,13.20
2019-06-01T02:47:55.252Z,13.10
2019-06-01T02:50:22.858Z,13.10
2019-06-01T02:52:51.397Z,13.10
2019-06-01T02:55:19.377Z,13.10
2019-06-01T02:57:46.774Z,13.00
2019-06-01T03:00:15.340Z,13.00
2019-06-01T03:02:42.760Z,13.00
2019-06-01T03:05:10.389Z,13.00
2019-06-01T03:07:41.467Z,13.00
2019-06-01T03:10:09.082Z,13.00
2019-06-01T03:12:41.997Z,12.90
2019-06-01T03:15:09.595Z,12.90
2019-06-01T03:17:37.024Z,12.80
2019-06-01T03:20:06.126Z,12.80
2019-06-01T03:22:33.508Z,12.80
2019-06-01T03:25:02.422Z,12.80
2019-06-01T03:27:32.493Z,12.80
2019-06-01T03:30:03.967Z,12.80
2019-06-01T03:32:36.546Z,12.70
2019-06-01T03:35:02.910Z,12.70
2019-06-01T03:37:30.760Z,12.60
2019-06-01T03:39:58.671Z,12.60
2019-06-01T03:42:27.169Z,12.60
2019-06-01T03:44:54.759Z,12.60
2019-06-01T03:47:22.228Z,12.70
2019-06-01T03:49:49.789Z,12.70
2019-06-01T03:52:18.715Z,12.60
2019-06-01T03:54:48.659Z,12.70
2019-06-01T03:57:22.382Z,12.60
2019-06-01T03:59:50.984Z,12.60
2019-06-01T04:02:32.486Z,12.60
2019-06-01T04:04:48.971Z,12.60
2019-06-01T04:07:19.450Z,12.60
2019-06-01T04:09:54.324Z,12.60
2019-06-01T04:12:22.415Z,12.60
2019-06-01T04:14:49.863Z,12.60
2019-06-01T04:17:18.319Z,12.60
2019-06-01T04:19:48.698Z,12.60
2019-06-01T04:22:16.385Z,12.60
2019-06-01T04:24:45.915Z,12.60
2019-06-01T04:27:13.319Z,12.60
2019-06-01T04:29:41.803Z,12.70
2019-06-01T04:32:10.619Z,12.80
2019-06-01T04:34:38.339Z,12.90
2019-06-01T04:37:09.118Z,13.00
2019-06-01T04:39:37.493Z,13.20
2019-06-01T04:42:05.538Z,13.30
2019-06-01T04:44:34.050Z,13.50
2019-06-01T04:47:04.293Z,13.70
2019-06-01T04:49:33.962Z,14.00
2019-06-01T04:52:05.250Z,14.20
2019-06-01T04:54:32.722Z,14.40
2019-06-01T04:57:00.225Z,14.60
2019-06-01T04:59:29.969Z,14.70
2019-06-01T05:01:57.730Z,15.00
2019-06-01T05:04:26.260Z,15.20
2019-06-01T05:06:53.583Z,15.10
2019-06-01T05:09:21.095Z,15.30
2019-06-01T05:11:55.324Z,15.50
2019-06-01T05:14:23.140Z,15.70
2019-06-01T05:16:50.767Z,15.90
2019-06-01T05:19:18.150Z,16.10
2019-06-01T05:21:46.393Z,16.20
2019-06-01T05:24:14.784Z,16.50
2019-06-01T05:26:42.474Z,16.80
2019-06-01T05:29:11.629Z,17.00
2019-06-01T05:31:39.162Z,17.20
2019-06-01T05:34:07.691Z,17.30
2019-06-01T05:36:38.132Z,17.50
2019-06-01T05:39:08.256Z,17.70
2019-06-01T05:41:36.551Z,17.90
2019-06-01T05:44:10.768Z,18.10
2019-06-01T05:46:42.248Z,18.30
2019-06-01T05:49:11.968Z,18.60
2019-06-01T05:51:39.086Z,18.80
2019-06-01T05:54:07.475Z,19.10
2019-06-01T05:56:35.495Z,19.40
2019-06-01T05:59:02.898Z,19.50
2019-06-01T06:01:30.541Z,19.70
2019-06-01T06:03:58.141Z,20.00
2019-06-01T06:06:26.726Z,20.20
2019-06-01T06:08:59.397Z,20.40
2019-06-01T06:11:30.882Z,20.50
2019-06-01T06:13:58.448Z,20.40
2019-06-01T06:16:32.122Z,20.70
2019-06-01T06:19:12.519Z,20.90
2019-06-01T06:21:40.962Z,21.20
2019-06-01T06:24:08.270Z,21.30
2019-06-01T06:26:41.562Z,21.50
2019-06-01T06:29:13.168Z,21.90
2019-06-01T06:31:41.852Z,22.30
2019-06-01T06:34:09.262Z,22.50
2019-06-01T06:36:36.857Z,22.70
2019-06-01T06:39:07.608Z,22.70
2019-06-01T06:41:35.065Z,22.90
2019-06-01T06:44:02.530Z,22.90
2019-06-01T06:46:30.109Z,22.90
2019-06-01T06:49:04.372Z,23.20
2019-06-01T06:51:39.826Z,23.30
2019-06-01T06:54:14.456Z,23.50
2019-06-01T06:56:40.590Z,23.60
2019-06-01T06:59:09.815Z,23.40
2019-06-01T07:01:37.249Z,23.10
2019-06-01T07:04:12.556Z,23.50
2019-06-01T07:06:34.229Z,23.80
2019-06-01T07:09:04.162Z,24.00
2019-06-01T07:11:31.899Z,24.70
2019-06-01T07:14:02.687Z,25.10
2019-06-01T07:16:30.341Z,25.20
2019-06-01T07:19:00.114Z,25.40
2019-06-01T07:21:27.878Z,25.90
2019-06-01T07:23:55.865Z,26.00
2019-06-01T07:26:24.081Z,25.60
2019-06-01T07:28:54.535Z,25.60
2019-06-01T07:31:24.160Z,25.90
2019-06-01T07:33:52.850Z,25.90
2019-06-01T07:36:22.291Z,26.10
2019-06-01T07:38:49.742Z,26.30
2019-06-01T07:41:17.498Z,26.70
2019-06-01T07:43:45.094Z,26.80
2019-06-01T07:46:13.091Z,27.10
2019-06-01T07:48:43.848Z,27.60
2019-06-01T07:51:11.890Z,27.70
2019-06-01T07:53:44.147Z,27.70
2019-06-01T07:56:14.210Z,28.10
2019-06-01T07:58:41.897Z,28.60
2019-06-01T08:01:15.148Z,29.00
2019-06-01T08:03:49.997Z,29.10
2019-06-01T08:06:18.531Z,29.50
2019-06-01T08:08:47.024Z,29.90
2019-06-01T08:11:15.735Z,30.30
2019-06-01T08:13:48.592Z,30.20
2019-06-01T08:16:16.317Z,30.30
2019-06-01T08:18:44.031Z,30.70
2019-06-01T08:21:26.038Z,30.30
2019-06-01T08:23:54.484Z,30.50
2019-06-01T08:26:28.542Z,30.50
2019-06-01T08:28:56.515Z,30.50
2019-06-01T08:31:31.839Z,30.60
2019-06-01T08:34:07.379Z,30.50
2019-06-01T08:36:42.003Z,30.90
2019-06-01T08:39:09.664Z,30.70
2019-06-01T08:41:38.427Z,30.70
2019-06-01T08:44:09.086Z,31.10
2019-06-01T08:46:39.644Z,31.00
2019-06-01T08:49:09.290Z,31.60
2019-06-01T08:51:36.943Z,32.00
2019-06-01T08:54:13.434Z,32.10
2019-06-01T08:56:47.684Z,32.00
2019-06-01T08:59:16.325Z,32.10
2019-06-01T09:01:45.787Z,32.30
2019-06-01T09:04:13.272Z,32.50
2019-06-01T09:06:40.952Z,31.90
2019-06-01T09:09:14.200Z,32.10
2019-06-01T09:11:41.717Z,32.50
2019-06-01T09:14:15.115Z,32.30
2019-06-01T09:16:42.721Z,32.70
2019-06-01T09:19:11.401Z,33.10
2019-06-01T09:21:39.721Z,33.30
2019-06-01T09:24:07.276Z,33.60
2019-06-01T09:26:36.061Z,33.80
2019-06-01T09:29:05.925Z,33.80
2019-06-01T09:31:39.999Z,33.50
2019-06-01T09:34:07.638Z,33.60
2019-06-01T09:36:36.805Z,33.90
2019-06-01T09:39:07.111Z,34.00
2019-06-01T09:41:41.547Z,34.10
2019-06-01T09:44:16.339Z,34.50
2019-06-01T09:46:45.977Z,34.50
2019-06-01T09:49:14.138Z,34.40
2019-06-01T09:51:42.408Z,34.50
2019-06-01T09:54:13.138Z,34.50
2019-06-01T09:56:40.944Z,34.50
2019-06-01T09:59:09.970Z,34.40
2019-06-01T10:01:38.734Z,34.30
2019-06-01T10:04:07.072Z,34.70
2019-06-01T10:06:36.373Z,34.20
2019-06-01T10:09:06.295Z,34.40
2019-06-01T10:11:36.030Z,34.00
2019-06-01T10:14:05.724Z,34.30
2019-06-01T10:16:34.550Z,34.60
2019-06-01T10:19:02.230Z,34.80
2019-06-01T10:21:29.797Z,34.60
2019-06-01T10:23:57.253Z,34.90
2019-06-01T10:26:25.140Z,34.60
2019-06-01T10:28:52.779Z,34.50
2019-06-01T10:31:20.296Z,34.60
2019-06-01T10:33:51.278Z,34.90
2019-06-01T10:36:21.242Z,34.90
2019-06-01T10:38:52.294Z,34.80
2019-06-01T10:41:21.076Z,35.10
2019-06-01T10:43:50.853Z,35.60
2019-06-01T10:46:21.943Z,35.70
2019-06-01T10:48:49.846Z,36.00
2019-06-01T10:51:20.716Z,36.00
2019-06-01T10:53:48.628Z,35.70
2019-06-01T10:56:16.143Z,35.70
2019-06-01T10:58:59.725Z,35.60
2019-06-01T11:01:14.536Z,35.90
2019-06-01T11:03:45.420Z,35.80
2019-06-01T11:06:12.960Z,35.80
2019-06-01T11:08:45.571Z,36.00
2019-06-01T11:11:16.249Z,36.20
2019-06-01T11:13:45.723Z,36.60
2019-06-01T11:16:13.223Z,36.00
2019-06-01T11:18:54.261Z,36.30
2019-06-01T11:21:25.173Z,36.20
2019-06-01T11:23:52.721Z,36.10
2019-06-01T11:26:22.013Z,36.00
2019-06-01T11:28:59.218Z,35.40
2019-06-01T11:31:35.912Z,34.80
2019-06-01T11:34:04.926Z,35.50
2019-06-01T11:36:34.235Z,36.40
2019-06-01T11:39:02.282Z,36.60
2019-06-01T11:41:32.301Z,36.80
2019-06-01T11:44:03.429Z,37.00
2019-06-01T11:46:37.241Z,36.40
2019-06-01T11:49:04.689Z,35.90
2019-06-01T11:51:41.488Z,35.60
2019-06-01T11:54:09.167Z,36.00
2019-06-01T11:56:39.223Z,36.50
2019-06-01T11:59:11.861Z,36.20
2019-06-01T12:01:39.812Z,36.40
2019-06-01T12:04:15.661Z,36.00
2019-06-01T12:06:56.812Z,35.80
2019-06-01T12:09:27.292Z,36.10
2019-06-01T12:12:04.594Z,36.20
2019-06-01T12:14:36.512Z,36.40
2019-06-01T12:17:22.080Z,36.10
2019-06-01T12:20:02.152Z,36.70
2019-06-01T12:22:36.992Z,36.80
2019-06-01T12:25:08.739Z,37.20
2019-06-01T12:27:39.405Z,37.30
2019-06-01T12:30:07.277Z,37.30
2019-06-01T12:32:39.825Z,37.60
2019-06-01T12:35:10.613Z,37.80
2019-06-01T12:38:05.334Z,37.20
2019-06-01T12:40:24.000Z,37.70
2019-06-01T12:42:53.720Z,37.10
2019-06-01T12:45:27.219Z,37.30
2019-06-01T12:48:00.337Z,38.00
2019-06-01T12:50:27.702Z,38.30
2019-06-01T12:52:56.340Z,38.40
2019-06-01T12:55:33.120Z,38.20
2019-06-01T12:58:00.773Z,37.90
2019-06-01T13:00:34.756Z,38.10
2019-06-01T13:03:07.837Z,37.30
2019-06-01T13:05:35.257Z,37.50
2019-06-01T13:08:04.196Z,38.10
2019-06-01T13:10:33.021Z,38.10
2019-06-01T13:13:00.852Z,38.20
2019-06-01T13:15:28.497Z,38.00
2019-06-01T13:17:56.199Z,37.90
2019-06-01T13:20:31.960Z,37.80
2019-06-01T13:23:02.173Z,38.10
2019-06-01T13:25:31.600Z,38.10
2019-06-01T13:28:00.137Z,39.00
2019-06-01T13:30:27.767Z,39.30
2019-06-01T13:32:56.047Z,38.90
2019-06-01T13:35:24.529Z,39.00
2019-06-01T13:38:10.939Z,39.00
2019-06-01T13:40:26.974Z,38.30
2019-06-01T13:43:09.694Z,38.40
2019-06-01T13:45:37.656Z,38.20
2019-06-01T13:48:09.823Z,37.70
2019-06-01T13:50:37.532Z,38.30
2019-06-01T13:53:06.989Z,39.00
2019-06-01T13:55:35.030Z,38.60
2019-06-01T13:58:06.002Z,38.50
2019-06-01T14:00:33.286Z,38.60
2019-06-01T14:03:00.822Z,38.30
2019-06-01T14:05:28.238Z,37.70
2019-06-01T14:08:02.742Z,37.90
2019-06-01T14:10:30.283Z,38.10
2019-06-01T14:12:59.214Z,37.80
2019-06-01T14:15:29.182Z,37.60
2019-06-01T14:17:56.825Z,37.50
2019-06-01T14:20:24.260Z,37.50
2019-06-01T14:22:54.077Z,38.00
2019-06-01T14:25:21.802Z,37.80
2019-06-01T14:27:50.185Z,37.80
2019-06-01T14:30:17.802Z,37.90
2019-06-01T14:32:46.207Z,37.60
2019-06-01T14:35:13.940Z,37.70
2019-06-01T14:37:41.660Z,37.20
2019-06-01T14:40:10.892Z,37.10
2019-06-01T14:42:43.610Z,36.80
2019-06-01T14:45:11.348Z,36.60
2019-06-01T14:47:40.789Z,36.70
2019-06-01T14:50:08.565Z,36.30
2019-06-01T14:52:38.364Z,36.40
2019-06-01T14:55:09.935Z,36.40
2019-06-01T14:57:37.500Z,36.50
2019-06-01T15:00:05.269Z,36.30
2019-06-01T15:02:33.298Z,35.80
2019-06-01T15:05:00.829Z,36.00
2019-06-01T15:07:30.615Z,35.40
2019-06-01T15:09:58.519Z,35.40
2019-06-01T15:12:32.350Z,35.30
2019-06-01T15:15:07.169Z,34.50
2019-06-01T15:17:36.728Z,33.80
2019-06-01T15:20:05.137Z,34.00
2019-06-01T15:22:44.801Z,33.80
2019-06-01T15:25:12.704Z,33.60
2019-06-01T15:27:42.192Z,33.60
2019-06-01T15:30:09.643Z,33.60
2019-06-01T15:32:37.165Z,33.60
2019-06-01T15:35:04.965Z,33.50
2019-06-01T15:37:32.725Z,33.40
2019-06-01T15:40:00.307Z,33.00
2019-06-01T15:42:33.984Z,32.30
2019-06-01T15:45:03.470Z,32.50
2019-06-01T15:47:30.877Z,32.40
2019-06-01T15:49:59.983Z,32.30
2019-06-01T15:52:27.870Z,32.20
2019-06-01T15:54:56.156Z,32.40
2019-06-01T15:57:24.614Z,32.30
2019-06-01T15:59:52.485Z,32.00
2019-06-01T16:02:24.110Z,32.00
2019-06-01T16:04:52.916Z,32.00
2019-06-01T16:07:20.875Z,31.90
2019-06-01T16:09:51.678Z,31.70
2019-06-01T16:12:20.447Z,31.60
2019-06-01T16:14:50.418Z,31.20
2019-06-01T16:17:21.907Z,31.10
2019-06-01T16:19:51.804Z,31.20
2019-06-01T16:22:19.272Z,31.00
2019-06-01T16:27:56.511Z,30.80
2019-06-01T16:30:32.701Z,30.80
2019-06-01T16:33:02.953Z,30.70
2019-06-01T16:36:14.345Z,30.50
2019-06-01T16:38:41.868Z,30.40
2019-06-01T16:41:15.594Z,30.60
2019-06-01T16:43:45.456Z,30.30
2019-06-01T16:46:14.004Z,30.20
2019-06-01T16:48:41.665Z,30.00
2019-06-01T16:51:10.417Z,30.10
2019-06-01T16:53:37.886Z,30.20
2019-06-01T16:56:06.339Z,30.30
2019-06-01T16:58:35.513Z,30.00
2019-06-01T17:01:06.738Z,29.90
2019-06-01T17:03:35.114Z,29.70
2019-06-01T17:06:02.957Z,29.30
2019-06-01T17:08:30.358Z,29.10
2019-06-01T17:10:58.652Z,28.80
2019-06-01T17:13:28.328Z,28.20
2019-06-01T17:15:57.185Z,28.20
2019-06-01T17:18:45.369Z,28.20
2019-06-01T17:21:24.466Z,28.20
2019-06-01T17:26:31.399Z,28.00
2019-06-01T17:29:00.054Z,28.00
2019-06-01T17:31:33.514Z,27.70
2019-06-01T17:34:04.623Z,27.70
2019-06-01T17:36:45.351Z,27.60
2019-06-01T17:39:42.612Z,27.60
2019-06-01T17:42:12.639Z,27.30
2019-06-01T17:44:46.801Z,27.30
2019-06-01T17:47:15.018Z,27.10
2019-06-01T17:49:43.251Z,27.40
2019-06-01T17:52:13.831Z,27.10
2019-06-01T17:54:48.475Z,27.00
2019-06-01T17:57:24.297Z,26.90
2019-06-01T17:59:57.989Z,27.00
2019-06-01T18:02:29.319Z,26.90
2019-06-01T18:04:56.899Z,27.00
2019-06-01T18:07:28.642Z,27.00
2019-06-01T18:10:04.500Z,27.00
2019-06-01T18:12:30.284Z,26.80
2019-06-01T18:14:57.662Z,26.80
2019-06-01T18:17:25.335Z,26.70
2019-06-01T18:19:52.885Z,26.70
2019-06-01T18:22:20.821Z,26.60
2019-06-01T18:24:48.185Z,26.50
2019-06-01T18:27:18.493Z,26.50
2019-06-01T18:30:01.083Z,26.50
2019-06-01T18:32:31.625Z,26.40
2019-06-01T18:34:59.465Z,26.30
2019-06-01T18:38:10.400Z,25.80
2019-06-01T18:40:23.514Z,25.50
2019-06-01T18:42:57.279Z,25.50
2019-06-01T18:45:26.428Z,25.60
2019-06-01T18:47:53.993Z,25.40
2019-06-01T18:50:21.362Z,25.50
2019-06-01T18:52:50.501Z,25.40
2019-06-01T18:55:20.803Z,25.30
2019-06-01T18:57:51.146Z,25.20
2019-06-01T19:00:22.714Z,25.10
2019-06-01T19:02:50.066Z,25.00
2019-06-01T19:05:17.883Z,24.60
2019-06-01T19:07:53.853Z,24.60
2019-06-01T19:10:25.286Z,24.60
2019-06-01T19:13:16.194Z,24.50
2019-06-01T19:15:53.246Z,24.50
2019-06-01T19:18:25.001Z,24.40
2019-06-01T19:21:06.332Z,24.20
2019-06-01T19:23:47.434Z,24.20
2019-06-01T19:26:18.566Z,24.00
2019-06-01T19:29:04.928Z,24.00
2019-06-01T19:31:34.770Z,23.90
2019-06-01T19:34:08.902Z,23.80
2019-06-01T19:36:45.229Z,23.70
2019-06-01T19:39:39.936Z,23.70
2019-06-01T19:42:09.581Z,23.30
2019-06-01T19:44:52.727Z,23.40
2019-06-01T19:47:49.616Z,23.30
2019-06-01T19:50:46.676Z,23.10
2019-06-01T19:53:32.108Z,23.10
2019-06-01T19:56:06.969Z,23.00
2019-06-01T19:58:44.169Z,22.90
2019-06-01T20:01:18.772Z,22.60
2019-06-01T20:04:14.927Z,22.80
2019-06-01T20:06:55.170Z,22.70
2019-06-01T20:10:16.336Z,22.60
2019-06-01T20:15:50.093Z,22.40
2019-06-01T20:21:55.978Z,22.10
2019-06-01T20:24:33.860Z,22.00
2019-06-01T20:27:41.008Z,22.00
2019-06-01T20:30:41.112Z,22.00
2019-06-01T20:33:09.839Z,21.90
2019-06-01T20:35:53.731Z,21.80
2019-06-01T20:38:23.556Z,21.80
2019-06-01T20:40:58.192Z,21.70
2019-06-01T20:43:26.071Z,21.80
2019-06-01T20:45:57.025Z,21.70
2019-06-01T20:48:28.182Z,21.60
2019-06-01T20:50:56.917Z,21.50
2019-06-01T20:53:30.025Z,21.50
2019-06-01T20:56:06.755Z,21.40
2019-06-01T20:58:36.498Z,21.40
2019-06-01T21:01:07.855Z,21.20
2019-06-01T21:03:41.193Z,21.20
2019-06-01T21:06:33.424Z,21.10
2019-06-01T21:09:01.567Z,21.00
2019-06-01T21:11:29.521Z,20.90
2019-06-01T21:13:59.613Z,20.90
2019-06-01T21:16:38.609Z,20.90
2019-06-01T21:19:06.572Z,20.90
2019-06-01T21:21:36.087Z,20.80
2019-06-01T21:24:04.788Z,20.80
2019-06-01T21:26:33.433Z,20.70
2019-06-01T21:29:02.120Z,20.70
2019-06-01T21:31:35.725Z,20.60
2019-06-01T21:34:03.465Z,20.50
2019-06-01T21:36:37.107Z,20.40
2019-06-01T21:39:09.883Z,20.40
2019-06-01T21:41:37.666Z,20.40
2019-06-01T21:44:05.292Z,20.30
2019-06-01T21:46:36.365Z,20.30
2019-06-01T21:49:07.216Z,20.30
2019-06-01T21:51:35.032Z,20.20
2019-06-01T21:54:09.767Z,20.20
2019-06-01T21:56:43.906Z,20.20
2019-06-01T21:59:11.724Z,20.20
2019-06-01T22:01:40.264Z,20.20
2019-06-01T22:04:08.311Z,20.10
2019-06-01T22:06:38.170Z,20.10
2019-06-01T22:09:13.818Z,20.00
2019-06-01T22:11:41.585Z,19.90
2019-06-01T22:14:12.327Z,19.80
2019-06-01T22:16:53.168Z,19.80
2019-06-01T22:19:29.507Z,19.80
2019-06-01T22:22:03.314Z,19.70
2019-06-01T22:24:30.861Z,19.70
2019-06-01T22:27:00.394Z,19.70
2019-06-01T22:29:33.260Z,19.60
2019-06-01T22:32:01.125Z,19.60
2019-06-01T22:34:29.306Z,19.50
2019-06-01T22:37:04.390Z,19.50
2019-06-01T22:39:32.099Z,19.50
2019-06-01T22:42:04.879Z,19.40
2019-06-01T22:44:32.699Z,19.40
2019-06-01T22:47:07.987Z,19.40
2019-06-01T22:49:38.348Z,19.40
2019-06-01T22:52:21.339Z,19.30
2019-06-01T22:54:59.575Z,19.30
2019-06-01T22:57:28.669Z,19.30
2019-06-01T23:00:04.840Z,19.30
2019-06-01T23:02:38.205Z,19.20
2019-06-01T23:05:05.666Z,19.20
2019-06-01T23:07:33.103Z,19.20
2019-06-01T23:10:00.460Z,19.20
2019-06-01T23:12:27.885Z,19.10
2019-06-01T23:14:55.747Z,19.10
2019-06-01T23:17:25.889Z,19.00
2019-06-01T23:19:56.172Z,19.00
2019-06-01T23:22:30.145Z,19.00
2019-06-01T23:25:02.485Z,18.90
2019-06-01T23:27:31.081Z,18.90
2019-06-01T23:30:05.550Z,18.90
2019-06-01T23:32:36.154Z,18.80
2019-06-01T23:35:03.864Z,18.80
2019-06-01T23:37:31.486Z,18.80
2019-06-01T23:39:59.227Z,18.80
2019-06-01T23:42:26.988Z,18.80
2019-06-01T23:46:03.146Z,18.70
2019-06-01T23:48:33.985Z,18.70
2019-06-01T23:51:10.631Z,18.70
2019-06-01T23:53:48.291Z,18.70
2019-06-01T23:56:30.083Z,18.60
2019-06-01T23:59:00.543Z,18.50
